Abington, Massachusetts
Current Conditions -  °F | °C
As of 4:53 PM on Sunday 25 Jan 2015 (Local Time) from KOWD Reporting Station
Clear Clear  
Wind Chill: -3°   Ceiling: Unl
Heat Index:   Visibility: 10mi
Dew Point: -13°   Wind: 6mph
Humidity: 38%   Direction: 270°W
Pressure: 29.78"   Gusts: NA
Location:  42.12°N, 70.96°W
Report Text: KOWD 252153Z 27005KT 10SM CLR 00/M13 A2978 RMK AO2 SLP084 T00001128
Loading
Personal Weather Stations






























Interactive Weather Map New forecast layout! Learn more

10-Day Weather Forecast

Advertisements
Track Severe Weather on mobile